This is the latest recevied weather packets stored in our database for station/object F8KGK-5. If no packets are shown the sender has not sent any weather packets the latest 10 day(s).
| Time | Temp. | Humidity | Pressure | Rain* | Wind** | Luminosity | Snow |
|---|---|---|---|---|---|---|---|
| 1788053419 | 16.67° C | 81% | 1005.8 hPa | 0 mm | - | - | - |
| 1788051621 | 16.67° C | 80% | 1005.7 hPa | 0 mm | - | - | - |
| 1788049819 | 16.67° C | 80% | 1005.6 hPa | 0 mm | - | - | - |
| 1788048019 | 17.22° C | 78% | 1005.4 hPa | 0 mm | - | - | - |
| 1788046219 | 17.78° C | 76% | 1005.4 hPa | 0 mm | - | - | - |
| 1788044419 | 17.78° C | 76% | 1005.3 hPa | 0 mm | - | - | - |
| 1788042620 | 18.33° C | 76% | 1005.3 hPa | 0 mm | - | - | - |
| 1788040819 | 18.33° C | 76% | 1005 hPa | 0 mm | - | - | - |
| 1788039020 | 18.33° C | 75% | 1004.8 hPa | 0 mm | - | - | - |
| 1788037220 | 18.33° C | 77% | 1004.6 hPa | 0 mm | - | - | - |
| 1788035420 | 18.89° C | 77% | 1004.4 hPa | 0 mm | - | - | - |
| 1788033620 | 18.89° C | 78% | 1004 hPa | 0 mm | - | - | - |
| 1788031819 | 19.44° C | 78% | 1003.6 hPa | 0 mm | - | - | - |
| 1788030019 | 20° C | 78% | 1002.9 hPa | 0 mm | - | - | - |
| 1788028219 | 20.56° C | 78% | 1002.5 hPa | 0 mm | - | - | - |
| 1788026419 | 20.56° C | 74% | 1002 hPa | 0 mm | - | - | - |
| 1788024619 | 22.78° C | 66% | 1001.4 hPa | 0 mm | - | - | - |
| 1788022819 | 21.67° C | 78% | 1001.4 hPa | 0 mm | - | - | - |
| 1788021020 | 23.33° C | 71% | 1001.1 hPa | 0 mm | - | - | - |
| 1788019218 | 23.33° C | 70% | 1001.1 hPa | 1.02 mm | - | - | - |
| 1788017419 | 22.78° C | 75% | 1001.1 hPa | 1.02 mm | - | - | - |
| 1788015619 | 23.33° C | 73% | 1001.4 hPa | 0 mm | - | - | - |
| 1788013820 | 22.78° C | 78% | 1001.6 hPa | 0 mm | - | - | - |
| 1788012018 | 20° C | 85% | 1002 hPa | 0 mm | - | - | - |
| 1788010220 | 21.67° C | 81% | 1002.3 hPa | 0 mm | - | - | - |
* Rain latest hour (hover to see other rain measurements)
** Current wind speed in m/s (hover to see current wind gust speed)